KAIK/AIK METAR and TAF weather

Enter ICAO airport designator
Station Type Date Time Source
KAIK METAR 2022/01/25 04:55 UTC NOAA

KAIK 250455Z AUTO 22005KT 10SM CLR 06/00 A2995 RMK AO2 T00641004


Station Type Date Time Source
KAIK Decoded METAR 2022/01/25 04:55 UTC NOAA

Station name not available
Jan 24, 2022 - 11:55 PM EST / 2022.01.25 0455 UTC
Wind: from the SW (220 degrees) at 6 MPH (5 KT):0
Visibility: 10 mile(s):0
Sky conditions: clear
Temperature: 43.5 F (6.4 C)
Dew Point: 31.3 F (-0.4 C)
Relative Humidity: 61%
Pressure (altimeter): 29.95 in. Hg (1014 hPa)
ob: KAIK 250455Z AUTO 22005KT 10SM CLR 06/00 A2995 RMK AO2 T00641004
cycle: 5

Station Type Date Time Source
KAIK TAF UTC NOAA

Error!

Example: see airport list